sensor_id;sensor_type;location;lat;lon;timestamp;pressure;altitude;pressure_sealevel;temperature;humidity
11349;BME280;5729;43.570;27.826;2022-08-21T00:00:59;98435.72;;;23.69;100.00
11349;BME280;5729;43.570;27.826;2022-08-21T00:03:28;98437.69;;;23.59;100.00
11349;BME280;5729;43.570;27.826;2022-08-21T00:05:53;98445.03;;;23.89;100.00
11349;BME280;5729;43.570;27.826;2022-08-21T00:08:20;98444.69;;;23.97;100.00
11349;BME280;5729;43.570;27.826;2022-08-21T00:10:46;98448.66;;;23.96;100.00
11349;BME280;5729;43.570;27.826;2022-08-21T00:13:13;98421.31;;;23.83;100.00
11349;BME280;5729;43.570;27.826;2022-08-21T00:15:40;98433.69;;;23.97;100.00
11349;BME280;5729;43.570;27.826;2022-08-21T00:18:08;98450.06;;;24.00;100.00
11349;BME280;5729;43.570;27.826;2022-08-21T00:20:34;98423.59;;;23.94;100.00
11349;BME280;5729;43.570;27.826;2022-08-21T00:23:00;98443.44;;;24.07;100.00
11349;BME280;5729;43.570;27.826;2022-08-21T00:25:26;98430.75;;;24.09;100.00
11349;BME280;5729;43.570;27.826;2022-08-21T00:27:53;98435.53;;;24.00;100.00
11349;BME280;5729;43.570;27.826;2022-08-21T00:30:20;98436.47;;;23.87;100.00
11349;BME280;5729;43.570;27.826;2022-08-21T00:32:46;98438.91;;;23.76;100.00
11349;BME280;5729;43.570;27.826;2022-08-21T00:35:15;98440.28;;;23.72;100.00
11349;BME280;5729;43.570;27.826;2022-08-21T00:37:41;98442.00;;;23.69;100.00
11349;BME280;5729;43.570;27.826;2022-08-21T00:40:12;98443.50;;;23.70;100.00
11349;BME280;5729;43.570;27.826;2022-08-21T00:42:38;98440.28;;;23.72;100.00
11349;BME280;5729;43.570;27.826;2022-08-21T00:45:06;98414.03;;;23.52;100.00
11349;BME280;5729;43.570;27.826;2022-08-21T00:47:32;98451.78;;;23.79;100.00
11349;BME280;5729;43.570;27.826;2022-08-21T00:49:57;98413.72;;;23.50;100.00
11349;BME280;5729;43.570;27.826;2022-08-21T00:52:27;98446.09;;;23.74;100.00
11349;BME280;5729;43.570;27.826;2022-08-21T00:54:55;98445.66;;;23.75;100.00
11349;BME280;5729;43.570;27.826;2022-08-21T00:57:27;98444.13;;;23.74;100.00
11349;BME280;5729;43.570;27.826;2022-08-21T00:59:56;98444.44;;;23.76;100.00
11349;BME280;5729;43.570;27.826;2022-08-21T01:02:22;98449.31;;;23.81;100.00
11349;BME280;5729;43.570;27.826;2022-08-21T01:04:48;98440.59;;;23.83;100.00
11349;BME280;5729;43.570;27.826;2022-08-21T01:07:14;98445.34;;;23.73;100.00
11349;BME280;5729;43.570;27.826;2022-08-21T01:09:41;98443.03;;;23.72;100.00
11349;BME280;5729;43.570;27.826;2022-08-21T01:12:07;98445.34;;;23.73;100.00
11349;BME280;5729;43.570;27.826;2022-08-21T01:14:33;98450.06;;;23.91;100.00
11349;BME280;5729;43.570;27.826;2022-08-21T01:17:00;98436.13;;;23.95;100.00
11349;BME280;5729;43.570;27.826;2022-08-21T01:19:28;98441.16;;;24.14;100.00
11349;BME280;5729;43.570;27.826;2022-08-21T01:21:54;98424.38;;;24.03;100.00
11349;BME280;5729;43.570;27.826;2022-08-21T01:24:20;98448.66;;;24.14;100.00
11349;BME280;5729;43.570;27.826;2022-08-21T01:26:48;98456.00;;;24.08;100.00
11349;BME280;5729;43.570;27.826;2022-08-21T01:31:48;98445.91;;;24.05;100.00
11349;BME280;5729;43.570;27.826;2022-08-21T01:34:14;98445.91;;;24.05;100.00
11349;BME280;5729;43.570;27.826;2022-08-21T01:36:41;98441.47;;;24.07;100.00
11349;BME280;5729;43.570;27.826;2022-08-21T01:39:07;98453.84;;;24.12;100.00
11349;BME280;5729;43.570;27.826;2022-08-21T01:41:32;98445.75;;;24.08;100.00
11349;BME280;5729;43.570;27.826;2022-08-21T01:43:58;98440.38;;;24.14;100.00
11349;BME280;5729;43.570;27.826;2022-08-21T01:46:24;98410.59;;;24.03;100.00
11349;BME280;5729;43.570;27.826;2022-08-21T01:48:49;98435.16;;;24.16;100.00
11349;BME280;5729;43.570;27.826;2022-08-21T01:51:15;98421.28;;;24.10;100.00
11349;BME280;5729;43.570;27.826;2022-08-21T01:53:41;98423.25;;;24.10;100.00
11349;BME280;5729;43.570;27.826;2022-08-21T01:56:09;98425.84;;;24.22;100.00
11349;BME280;5729;43.570;27.826;2022-08-21T01:58:36;98422.00;;;24.20;100.00
11349;BME280;5729;43.570;27.826;2022-08-21T02:01:03;98417.78;;;24.01;100.00
11349;BME280;5729;43.570;27.826;2022-08-21T02:03:29;98413.94;;;24.07;100.00
11349;BME280;5729;43.570;27.826;2022-08-21T02:05:55;98422.97;;;24.08;100.00
11349;BME280;5729;43.570;27.826;2022-08-21T02:08:21;98417.16;;;24.06;100.00
11349;BME280;5729;43.570;27.826;2022-08-21T02:10:51;98421.72;;;24.09;100.00
11349;BME280;5729;43.570;27.826;2022-08-21T02:13:17;98426.31;;;24.12;100.00
11349;BME280;5729;43.570;27.826;2022-08-21T02:15:43;98417.72;;;24.19;100.00
11349;BME280;5729;43.570;27.826;2022-08-21T02:18:09;98389.34;;;24.04;100.00
11349;BME280;5729;43.570;27.826;2022-08-21T02:20:38;98426.59;;;24.32;100.00
11349;BME280;5729;43.570;27.826;2022-08-21T02:23:05;98435.91;;;24.35;100.00
11349;BME280;5729;43.570;27.826;2022-08-21T02:25:32;98422.75;;;24.30;100.00
11349;BME280;5729;43.570;27.826;2022-08-21T02:27:59;98432.13;;;24.23;100.00
11349;BME280;5729;43.570;27.826;2022-08-21T02:30:28;98429.66;;;24.16;100.00
11349;BME280;5729;43.570;27.826;2022-08-21T02:32:54;98437.03;;;24.10;100.00
11349;BME280;5729;43.570;27.826;2022-08-21T02:35:21;98434.44;;;24.06;100.00
11349;BME280;5729;43.570;27.826;2022-08-21T02:37:51;98431.09;;;23.93;100.00
11349;BME280;5729;43.570;27.826;2022-08-21T02:40:20;98434.31;;;24.01;100.00
11349;BME280;5729;43.570;27.826;2022-08-21T02:42:46;98434.00;;;23.99;100.00
11349;BME280;5729;43.570;27.826;2022-08-21T02:45:12;98431.25;;;23.99;100.00
11349;BME280;5729;43.570;27.826;2022-08-21T02:47:39;98430.19;;;23.87;100.00
11349;BME280;5729;43.570;27.826;2022-08-21T02:50:06;98429.09;;;24.03;100.00
11349;BME280;5729;43.570;27.826;2022-08-21T02:52:31;98429.09;;;24.03;100.00
11349;BME280;5729;43.570;27.826;2022-08-21T02:54:58;98428.78;;;24.01;100.00
11349;BME280;5729;43.570;27.826;2022-08-21T02:57:24;98434.13;;;24.04;100.00
11349;BME280;5729;43.570;27.826;2022-08-21T02:59:50;98404.81;;;23.92;100.00
11349;BME280;5729;43.570;27.826;2022-08-21T03:02:15;98426.00;;;24.10;100.00
11349;BME280;5729;43.570;27.826;2022-08-21T03:04:41;98434.59;;;24.12;100.00
11349;BME280;5729;43.570;27.826;2022-08-21T03:07:06;98433.34;;;24.13;100.00
11349;BME280;5729;43.570;27.826;2022-08-21T03:09:32;98427.53;;;24.11;100.00
11349;BME280;5729;43.570;27.826;2022-08-21T03:11:57;98427.53;;;24.11;100.00
11349;BME280;5729;43.570;27.826;2022-08-21T03:14:23;98439.47;;;24.08;100.00
11349;BME280;5729;43.570;27.826;2022-08-21T03:16:49;98436.25;;;24.09;100.00
11349;BME280;5729;43.570;27.826;2022-08-21T03:19:15;98439.47;;;24.08;100.00
11349;BME280;5729;43.570;27.826;2022-08-21T03:21:40;98437.34;;;24.03;100.00
11349;BME280;5729;43.570;27.826;2022-08-21T03:24:06;98439.50;;;23.99;100.00
11349;BME280;5729;43.570;27.826;2022-08-21T03:26:32;98441.94;;;23.97;100.00
11349;BME280;5729;43.570;27.826;2022-08-21T03:28:58;98437.97;;;23.98;100.00
11349;BME280;5729;43.570;27.826;2022-08-21T03:31:24;98446.38;;;23.94;100.00
11349;BME280;5729;43.570;27.826;2022-08-21T03:33:53;98437.53;;;23.90;100.00
11349;BME280;5729;43.570;27.826;2022-08-21T03:36:20;98441.50;;;23.89;100.00
11349;BME280;5729;43.570;27.826;2022-08-21T03:38:46;98416.75;;;23.80;100.00
11349;BME280;5729;43.570;27.826;2022-08-21T03:41:11;98448.66;;;23.96;100.00
11349;BME280;5729;43.570;27.826;2022-08-21T03:43:37;98453.25;;;23.99;100.00
11349;BME280;5729;43.570;27.826;2022-08-21T03:46:04;98458.34;;;23.91;100.00
11349;BME280;5729;43.570;27.826;2022-08-21T03:48:34;98449.63;;;23.93;100.00
11349;BME280;5729;43.570;27.826;2022-08-21T03:50:59;98450.81;;;24.01;100.00
11349;BME280;5729;43.570;27.826;2022-08-21T03:53:25;98458.00;;;23.98;100.00
11349;BME280;5729;43.570;27.826;2022-08-21T03:55:51;98455.56;;;23.91;100.00
11349;BME280;5729;43.570;27.826;2022-08-21T03:58:20;98466.59;;;23.91;100.00
11349;BME280;5729;43.570;27.826;2022-08-21T04:00:47;98463.66;;;23.85;100.00
11349;BME280;5729;43.570;27.826;2022-08-21T04:03:14;98461.56;;;23.80;100.00
11349;BME280;5729;43.570;27.826;2022-08-21T04:05:40;98455.88;;;23.75;100.00
11349;BME280;5729;43.570;27.826;2022-08-21T04:08:06;98470.09;;;23.73;100.00
11349;BME280;5729;43.570;27.826;2022-08-21T04:10:35;98462.31;;;23.72;100.00
11349;BME280;5729;43.570;27.826;2022-08-21T04:13:03;98458.66;;;23.66;100.00
11349;BME280;5729;43.570;27.826;2022-08-21T04:15:29;98464.91;;;23.66;100.00
11349;BME280;5729;43.570;27.826;2022-08-21T04:17:54;98449.63;;;23.65;100.00
11349;BME280;5729;43.570;27.826;2022-08-21T04:20:21;98461.69;;;23.77;100.00
11349;BME280;5729;43.570;27.826;2022-08-21T04:22:47;98449.03;;;23.79;100.00
11349;BME280;5729;43.570;27.826;2022-08-21T04:25:14;98450.69;;;23.86;100.00
11349;BME280;5729;43.570;27.826;2022-08-21T04:27:41;98459.38;;;23.94;100.00
11349;BME280;5729;43.570;27.826;2022-08-21T04:30:08;98458.75;;;23.99;100.00
11349;BME280;5729;43.570;27.826;2022-08-21T04:32:35;98459.97;;;24.07;100.00
11349;BME280;5729;43.570;27.826;2022-08-21T04:35:04;98456.16;;;24.13;100.00
11349;BME280;5729;43.570;27.826;2022-08-21T04:37:30;98457.19;;;24.16;100.00
11349;BME280;5729;43.570;27.826;2022-08-21T04:39:56;98448.19;;;24.24;100.00
11349;BME280;5729;43.570;27.826;2022-08-21T04:42:27;98449.22;;;24.27;100.00
11349;BME280;5729;43.570;27.826;2022-08-21T04:44:54;98414.38;;;24.06;100.00
11349;BME280;5729;43.570;27.826;2022-08-21T04:47:20;98428.16;;;24.24;100.00
11349;BME280;5729;43.570;27.826;2022-08-21T04:49:46;98462.03;;;24.39;100.00
11349;BME280;5729;43.570;27.826;2022-08-21T04:52:13;98464.53;;;24.37;100.00
11349;BME280;5729;43.570;27.826;2022-08-21T04:54:42;98459.47;;;24.36;100.00
11349;BME280;5729;43.570;27.826;2022-08-21T04:57:09;98454.59;;;24.31;100.00
11349;BME280;5729;43.570;27.826;2022-08-21T04:59:39;98459.28;;;24.39;100.00
11349;BME280;5729;43.570;27.826;2022-08-21T05:02:06;98464.66;;;24.43;100.00
11349;BME280;5729;43.570;27.826;2022-08-21T05:04:36;98462.63;;;24.52;100.00
11349;BME280;5729;43.570;27.826;2022-08-21T05:07:05;98457.38;;;24.64;100.00
11349;BME280;5729;43.570;27.826;2022-08-21T05:09:33;98458.88;;;24.65;100.00
11349;BME280;5729;43.570;27.826;2022-08-21T05:12:01;98451.47;;;24.80;100.00
11349;BME280;5729;43.570;27.826;2022-08-21T05:14:27;98445.91;;;24.89;100.00
11349;BME280;5729;43.570;27.826;2022-08-21T05:16:53;98439.94;;;24.90;100.00
11349;BME280;5729;43.570;27.826;2022-08-21T05:19:18;98443.53;;;25.06;100.00
11349;BME280;5729;43.570;27.826;2022-08-21T05:21:45;98434.31;;;25.09;100.00
11349;BME280;5729;43.570;27.826;2022-08-21T05:24:13;98445.25;;;25.03;100.00
11349;BME280;5729;43.570;27.826;2022-08-21T05:26:38;98437.94;;;24.91;100.00
11349;BME280;5729;43.570;27.826;2022-08-21T05:29:04;98448.25;;;24.81;100.00
11349;BME280;5729;43.570;27.826;2022-08-21T05:31:29;98434.03;;;24.74;100.00
11349;BME280;5729;43.570;27.826;2022-08-21T05:33:55;98439.53;;;24.83;100.00
11349;BME280;5729;43.570;27.826;2022-08-21T05:36:20;98438.84;;;24.97;100.00
11349;BME280;5729;43.570;27.826;2022-08-21T05:38:46;98442.91;;;25.11;100.00
11349;BME280;5729;43.570;27.826;2022-08-21T05:41:11;98443.72;;;25.26;100.00
11349;BME280;5729;43.570;27.826;2022-08-21T05:43:37;98423.53;;;25.20;100.00
11349;BME280;5729;43.570;27.826;2022-08-21T05:46:04;98434.03;;;25.30;100.00
11349;BME280;5729;43.570;27.826;2022-08-21T05:48:30;98431.56;;;25.32;100.00
11349;BME280;5729;43.570;27.826;2022-08-21T05:50:55;98440.00;;;25.29;100.00
11349;BME280;5729;43.570;27.826;2022-08-21T05:53:22;98433.50;;;25.17;100.00
11349;BME280;5729;43.570;27.826;2022-08-21T05:55:50;98428.81;;;25.09;100.00
11349;BME280;5729;43.570;27.826;2022-08-21T05:58:18;98440.31;;;25.07;100.00
11349;BME280;5729;43.570;27.826;2022-08-21T06:00:45;98444.03;;;25.04;100.00
11349;BME280;5729;43.570;27.826;2022-08-21T06:03:14;98451.22;;;25.02;100.00
11349;BME280;5729;43.570;27.826;2022-08-21T06:05:42;98447.31;;;24.93;100.00
11349;BME280;5729;43.570;27.826;2022-08-21T06:08:07;98426.75;;;24.94;100.00
11349;BME280;5729;43.570;27.826;2022-08-21T06:10:33;98445.81;;;25.07;100.00
11349;BME280;5729;43.570;27.826;2022-08-21T06:12:58;98446.28;;;25.06;100.00
11349;BME280;5729;43.570;27.826;2022-08-21T06:15:24;98442.44;;;25.12;100.00
11349;BME280;5729;43.570;27.826;2022-08-21T06:17:50;98440.44;;;25.13;100.00
11349;BME280;5729;43.570;27.826;2022-08-21T06:20:15;98438.44;;;25.13;100.00
11349;BME280;5729;43.570;27.826;2022-08-21T06:22:41;98437.69;;;25.13;100.00
11349;BME280;5729;43.570;27.826;2022-08-21T06:25:07;98431.03;;;25.19;100.00
11349;BME280;5729;43.570;27.826;2022-08-21T06:27:32;98438.59;;;25.33;100.00
11349;BME280;5729;43.570;27.826;2022-08-21T06:29:58;98435.97;;;25.39;100.00
11349;BME280;5729;43.570;27.826;2022-08-21T06:32:23;98431.91;;;25.49;100.00
11349;BME280;5729;43.570;27.826;2022-08-21T06:34:49;98434.56;;;25.58;100.00
11349;BME280;5729;43.570;27.826;2022-08-21T06:37:14;98433.94;;;25.63;100.00
11349;BME280;5729;43.570;27.826;2022-08-21T06:39:40;98431.88;;;25.73;100.00
11349;BME280;5729;43.570;27.826;2022-08-21T06:42:05;98428.16;;;25.76;100.00
11349;BME280;5729;43.570;27.826;2022-08-21T06:44:31;98427.03;;;25.83;100.00
11349;BME280;5729;43.570;27.826;2022-08-21T06:46:57;98425.28;;;25.85;100.00
11349;BME280;5729;43.570;27.826;2022-08-21T06:49:22;98427.56;;;25.87;100.00
11349;BME280;5729;43.570;27.826;2022-08-21T06:51:48;98418.16;;;25.93;100.00
11349;BME280;5729;43.570;27.826;2022-08-21T06:54:14;98421.22;;;25.95;100.00
11349;BME280;5729;43.570;27.826;2022-08-21T06:56:39;98411.22;;;25.98;100.00
11349;BME280;5729;43.570;27.826;2022-08-21T06:59:05;98417.38;;;26.08;100.00
11349;BME280;5729;43.570;27.826;2022-08-21T07:01:31;98408.44;;;26.13;100.00
11349;BME280;5729;43.570;27.826;2022-08-21T07:03:57;98410.81;;;26.20;100.00
11349;BME280;5729;43.570;27.826;2022-08-21T07:06:24;98406.25;;;26.17;100.00
11349;BME280;5729;43.570;27.826;2022-08-21T07:08:50;98415.00;;;26.30;100.00
11349;BME280;5729;43.570;27.826;2022-08-21T07:11:22;98408.81;;;26.35;100.00
11349;BME280;5729;43.570;27.826;2022-08-21T07:13:48;98387.91;;;26.28;100.00
11349;BME280;5729;43.570;27.826;2022-08-21T07:16:16;98420.69;;;26.56;100.00
11349;BME280;5729;43.570;27.826;2022-08-21T07:18:41;98413.31;;;26.67;100.00
11349;BME280;5729;43.570;27.826;2022-08-21T07:21:08;98408.44;;;26.77;100.00
11349;BME280;5729;43.570;27.826;2022-08-21T07:23:37;98411.09;;;26.86;100.00
11349;BME280;5729;43.570;27.826;2022-08-21T07:26:03;98402.44;;;26.99;100.00
11349;BME280;5729;43.570;27.826;2022-08-21T07:28:29;98396.28;;;27.09;100.00
11349;BME280;5729;43.570;27.826;2022-08-21T07:30:57;98400.31;;;27.29;100.00
11349;BME280;5729;43.570;27.826;2022-08-21T07:33:25;98394.19;;;27.45;100.00
11349;BME280;5729;43.570;27.826;2022-08-21T07:35:51;98394.41;;;27.62;100.00
11349;BME280;5729;43.570;27.826;2022-08-21T07:38:17;98392.63;;;27.85;100.00
11349;BME280;5729;43.570;27.826;2022-08-21T07:40:44;98398.34;;;28.07;100.00
11349;BME280;5729;43.570;27.826;2022-08-21T07:43:10;98400.50;;;28.23;100.00
11349;BME280;5729;43.570;27.826;2022-08-21T07:45:36;98392.31;;;28.40;100.00
11349;BME280;5729;43.570;27.826;2022-08-21T07:48:02;98392.66;;;28.53;100.00
11349;BME280;5729;43.570;27.826;2022-08-21T07:50:27;98380.34;;;28.60;100.00
11349;BME280;5729;43.570;27.826;2022-08-21T07:52:53;98398.56;;;28.72;100.00
11349;BME280;5729;43.570;27.826;2022-08-21T07:55:20;98398.91;;;28.85;100.00
11349;BME280;5729;43.570;27.826;2022-08-21T07:57:47;98390.91;;;28.98;100.00
11349;BME280;5729;43.570;27.826;2022-08-21T08:00:15;98395.47;;;29.07;100.00
11349;BME280;5729;43.570;27.826;2022-08-21T08:02:45;98392.00;;;29.17;100.00
11349;BME280;5729;43.570;27.826;2022-08-21T08:05:12;98390.00;;;29.29;100.00
11349;BME280;5729;43.570;27.826;2022-08-21T08:07:38;98377.66;;;29.30;100.00
11349;BME280;5729;43.570;27.826;2022-08-21T08:10:05;98383.22;;;29.36;100.00
11349;BME280;5729;43.570;27.826;2022-08-21T08:12:33;98376.41;;;29.37;100.00
11349;BME280;5729;43.570;27.826;2022-08-21T08:15:00;98384.28;;;29.49;100.00
11349;BME280;5729;43.570;27.826;2022-08-21T08:17:27;98380.00;;;29.48;100.00
11349;BME280;5729;43.570;27.826;2022-08-21T08:19:53;98378.00;;;29.60;100.00
11349;BME280;5729;43.570;27.826;2022-08-21T08:22:21;98378.25;;;29.56;100.00
11349;BME280;5729;43.570;27.826;2022-08-21T08:24:49;98371.94;;;29.61;100.00
11349;BME280;5729;43.570;27.826;2022-08-21T08:27:15;98372.50;;;29.99;100.00
11349;BME280;5729;43.570;27.826;2022-08-21T08:29:42;98368.94;;;30.32;100.00
11349;BME280;5729;43.570;27.826;2022-08-21T08:32:07;98371.47;;;30.30;100.00
11349;BME280;5729;43.570;27.826;2022-08-21T08:34:34;98359.59;;;31.97;100.00
11349;BME280;5729;43.570;27.826;2022-08-21T08:36:59;98363.78;;;33.50;83.07
11349;BME280;5729;43.570;27.826;2022-08-21T08:39:25;98354.63;;;33.68;86.33
11349;BME280;5729;43.570;27.826;2022-08-21T08:41:58;98360.06;;;33.61;80.43
11349;BME280;5729;43.570;27.826;2022-08-21T08:44:27;98354.22;;;33.27;89.19
11349;BME280;5729;43.570;27.826;2022-08-21T08:46:53;98357.88;;;33.53;83.74
11349;BME280;5729;43.570;27.826;2022-08-21T08:49:37;98356.72;;;36.77;69.28
11349;BME280;5729;43.570;27.826;2022-08-21T08:52:22;98360.22;;;39.67;49.37
11349;BME280;5729;43.570;27.826;2022-08-21T08:57:25;98355.38;;;40.17;41.20
11349;BME280;5729;43.570;27.826;2022-08-21T08:59:53;98352.22;;;38.60;45.49
11349;BME280;5729;43.570;27.826;2022-08-21T09:02:21;98361.34;;;37.11;51.76
11349;BME280;5729;43.570;27.826;2022-08-21T09:04:50;98353.59;;;36.11;58.25
11349;BME280;5729;43.570;27.826;2022-08-21T09:07:23;98343.22;;;34.96;60.29
11349;BME280;5729;43.570;27.826;2022-08-21T09:13:00;98338.91;;;33.84;68.61
11349;BME280;5729;43.570;27.826;2022-08-21T09:18:13;98329.09;;;34.88;72.25
11349;BME280;5729;43.570;27.826;2022-08-21T09:23:36;98333.31;;;34.29;65.48
11349;BME280;5729;43.570;27.826;2022-08-21T09:26:22;98328.09;;;34.07;73.03
11349;BME280;5729;43.570;27.826;2022-08-21T09:28:53;98322.94;;;35.50;62.04
11349;BME280;5729;43.570;27.826;2022-08-21T09:31:31;98310.94;;;37.64;49.56
11349;BME280;5729;43.570;27.826;2022-08-21T09:34:03;98316.50;;;39.83;44.10
11349;BME280;5729;43.570;27.826;2022-08-21T09:36:49;98313.19;;;41.86;37.71
11349;BME280;5729;43.570;27.826;2022-08-21T09:39:25;98317.09;;;42.00;36.17
11349;BME280;5729;43.570;27.826;2022-08-21T09:42:03;98305.91;;;42.77;35.11
11349;BME280;5729;43.570;27.826;2022-08-21T09:44:36;98307.53;;;43.59;31.97
11349;BME280;5729;43.570;27.826;2022-08-21T09:47:10;98300.59;;;44.67;29.55
11349;BME280;5729;43.570;27.826;2022-08-21T09:49:39;98293.41;;;45.32;29.92
11349;BME280;5729;43.570;27.826;2022-08-21T09:52:19;98293.78;;;45.96;28.83
11349;BME280;5729;43.570;27.826;2022-08-21T09:54:51;98272.56;;;46.34;27.63
11349;BME280;5729;43.570;27.826;2022-08-21T09:57:26;98283.84;;;46.69;27.02
11349;BME280;5729;43.570;27.826;2022-08-21T10:00:26;98255.78;;;46.03;26.25
11349;BME280;5729;43.570;27.826;2022-08-21T10:03:18;98280.66;;;46.51;27.23
11349;BME280;5729;43.570;27.826;2022-08-21T10:05:55;98282.03;;;46.50;25.73
11349;BME280;5729;43.570;27.826;2022-08-21T10:08:22;98274.72;;;46.98;25.88
11349;BME280;5729;43.570;27.826;2022-08-21T10:11:06;98268.50;;;47.27;24.97
11349;BME280;5729;43.570;27.826;2022-08-21T10:13:55;98267.81;;;47.40;24.42
11349;BME280;5729;43.570;27.826;2022-08-21T10:24:48;98255.91;;;46.42;24.12
11349;BME280;5729;43.570;27.826;2022-08-21T10:27:26;98249.25;;;45.54;25.07
11349;BME280;5729;43.570;27.826;2022-08-21T10:30:08;98248.78;;;44.90;28.17
11349;BME280;5729;43.570;27.826;2022-08-21T10:35:27;98240.41;;;46.45;25.60
11349;BME280;5729;43.570;27.826;2022-08-21T10:46:36;98241.84;;;46.58;26.55
11349;BME280;5729;43.570;27.826;2022-08-21T10:54:52;98228.88;;;48.01;25.91
11349;BME280;5729;43.570;27.826;2022-08-21T10:57:42;98200.75;;;47.14;26.11
11349;BME280;5729;43.570;27.826;2022-08-21T11:00:14;98210.91;;;46.27;27.00
11349;BME280;5729;43.570;27.826;2022-08-21T11:05:25;98223.59;;;43.87;28.88
11349;BME280;5729;43.570;27.826;2022-08-21T11:08:10;98212.16;;;43.04;31.47
11349;BME280;5729;43.570;27.826;2022-08-21T11:10:45;98197.53;;;43.69;28.99
11349;BME280;5729;43.570;27.826;2022-08-21T11:13:47;98221.19;;;44.47;28.38
11349;BME280;5729;43.570;27.826;2022-08-21T11:21:50;98205.94;;;42.86;32.00
11349;BME280;5729;43.570;27.826;2022-08-21T11:29:51;98207.59;;;43.30;31.95
11349;BME280;5729;43.570;27.826;2022-08-21T11:32:24;98206.66;;;43.37;32.06
11349;BME280;5729;43.570;27.826;2022-08-21T11:42:52;98190.41;;;41.16;36.99
11349;BME280;5729;43.570;27.826;2022-08-21T11:50:35;98202.97;;;37.90;50.94
11349;BME280;5729;43.570;27.826;2022-08-21T12:00:47;98192.72;;;35.51;100.00
11349;BME280;5729;43.570;27.826;2022-08-21T12:03:17;98190.72;;;34.76;100.00
11349;BME280;5729;43.570;27.826;2022-08-21T12:06:04;98194.75;;;34.28;100.00
11349;BME280;5729;43.570;27.826;2022-08-21T12:08:34;98200.13;;;34.26;100.00
11349;BME280;5729;43.570;27.826;2022-08-21T12:14:12;98183.31;;;35.41;100.00
11349;BME280;5729;43.570;27.826;2022-08-21T12:16:49;98184.38;;;35.59;97.55
11349;BME280;5729;43.570;27.826;2022-08-21T12:24:32;98162.84;;;34.91;89.04
11349;BME280;5729;43.570;27.826;2022-08-21T12:27:12;98175.25;;;34.49;85.17
11349;BME280;5729;43.570;27.826;2022-08-21T12:29:39;98183.13;;;33.98;91.61
11349;BME280;5729;43.570;27.826;2022-08-21T12:34:48;98176.94;;;33.14;100.00
11349;BME280;5729;43.570;27.826;2022-08-21T12:37:38;98162.75;;;32.80;100.00
11349;BME280;5729;43.570;27.826;2022-08-21T12:40:33;98177.72;;;32.40;100.00
11349;BME280;5729;43.570;27.826;2022-08-21T12:43:03;98193.69;;;32.21;100.00
11349;BME280;5729;43.570;27.826;2022-08-21T12:45:37;98180.88;;;32.06;100.00
11349;BME280;5729;43.570;27.826;2022-08-21T12:48:42;98188.16;;;31.91;100.00
11349;BME280;5729;43.570;27.826;2022-08-21T12:51:15;98187.56;;;31.73;100.00
11349;BME280;5729;43.570;27.826;2022-08-21T12:53:54;98176.31;;;31.60;100.00
11349;BME280;5729;43.570;27.826;2022-08-21T12:56:23;98176.94;;;31.48;100.00
11349;BME280;5729;43.570;27.826;2022-08-21T12:58:54;98183.06;;;31.40;100.00
11349;BME280;5729;43.570;27.826;2022-08-21T13:01:26;98180.88;;;31.28;100.00
11349;BME280;5729;43.570;27.826;2022-08-21T13:03:54;98170.59;;;31.17;100.00
11349;BME280;5729;43.570;27.826;2022-08-21T13:06:23;98177.47;;;31.05;100.00
11349;BME280;5729;43.570;27.826;2022-08-21T13:08:58;98183.94;;;30.89;100.00
11349;BME280;5729;43.570;27.826;2022-08-21T13:11:29;98183.63;;;30.98;100.00
11349;BME280;5729;43.570;27.826;2022-08-21T13:13:54;98189.38;;;31.05;100.00
11349;BME280;5729;43.570;27.826;2022-08-21T13:16:27;98169.22;;;30.94;100.00
11349;BME280;5729;43.570;27.826;2022-08-21T13:19:05;98190.66;;;31.10;100.00
11349;BME280;5729;43.570;27.826;2022-08-21T13:21:34;98176.38;;;31.25;100.00
11349;BME280;5729;43.570;27.826;2022-08-21T13:24:28;98175.41;;;31.77;100.00
11349;BME280;5729;43.570;27.826;2022-08-21T13:26:54;98167.63;;;31.94;100.00
11349;BME280;5729;43.570;27.826;2022-08-21T13:29:23;98173.34;;;32.01;100.00
11349;BME280;5729;43.570;27.826;2022-08-21T13:31:57;98180.44;;;32.27;100.00
11349;BME280;5729;43.570;27.826;2022-08-21T13:34:28;98179.38;;;32.67;100.00
11349;BME280;5729;43.570;27.826;2022-08-21T13:36:57;98181.53;;;33.44;100.00
11349;BME280;5729;43.570;27.826;2022-08-21T13:39:24;98172.91;;;34.13;100.00
11349;BME280;5729;43.570;27.826;2022-08-21T13:41:54;98169.88;;;34.85;100.00
11349;BME280;5729;43.570;27.826;2022-08-21T13:44:39;98166.56;;;35.49;94.22
11349;BME280;5729;43.570;27.826;2022-08-21T13:47:06;98147.06;;;35.22;89.61
11349;BME280;5729;43.570;27.826;2022-08-21T13:49:39;98168.88;;;34.95;97.98
11349;BME280;5729;43.570;27.826;2022-08-21T13:52:21;98171.28;;;34.18;100.00
11349;BME280;5729;43.570;27.826;2022-08-21T13:54:59;98175.38;;;33.32;100.00
11349;BME280;5729;43.570;27.826;2022-08-21T13:57:33;98172.81;;;33.02;100.00
11349;BME280;5729;43.570;27.826;2022-08-21T14:00:25;98168.09;;;32.78;100.00
11349;BME280;5729;43.570;27.826;2022-08-21T14:02:52;98164.66;;;32.72;100.00
11349;BME280;5729;43.570;27.826;2022-08-21T14:05:27;98181.56;;;32.56;100.00
11349;BME280;5729;43.570;27.826;2022-08-21T14:08:05;98168.06;;;32.41;100.00
11349;BME280;5729;43.570;27.826;2022-08-21T14:10:36;98162.50;;;32.22;100.00
11349;BME280;5729;43.570;27.826;2022-08-21T14:13:04;98178.81;;;32.13;100.00
11349;BME280;5729;43.570;27.826;2022-08-21T14:15:32;98178.91;;;32.63;100.00
11349;BME280;5729;43.570;27.826;2022-08-21T14:18:16;98182.50;;;33.14;100.00
11349;BME280;5729;43.570;27.826;2022-08-21T14:20:43;98172.88;;;33.74;100.00
11349;BME280;5729;43.570;27.826;2022-08-21T14:23:09;98171.63;;;34.14;100.00
11349;BME280;5729;43.570;27.826;2022-08-21T14:25:44;98172.69;;;34.11;100.00
11349;BME280;5729;43.570;27.826;2022-08-21T14:28:28;98170.75;;;33.93;100.00